createdAt,value
2019-01-25T00:01:28.322Z,90.90
2019-01-25T00:03:58.666Z,91.00
2019-01-25T00:06:29.078Z,91.00
2019-01-25T00:08:59.795Z,91.10
2019-01-25T00:11:30.191Z,90.90
2019-01-25T00:14:00.531Z,91.00
2019-01-25T00:16:31.045Z,91.10
2019-01-25T00:19:01.396Z,91.30
2019-01-25T00:21:31.774Z,91.10
2019-01-25T00:24:02.560Z,91.30
2019-01-25T00:26:32.918Z,91.00
2019-01-25T00:29:03.310Z,91.00
2019-01-25T00:31:33.658Z,91.00
2019-01-25T00:34:04.665Z,90.80
2019-01-25T00:36:35.366Z,91.00
2019-01-25T00:39:08.082Z,91.10
2019-01-25T00:41:38.418Z,90.90
2019-01-25T00:44:08.799Z,91.00
2019-01-25T00:46:39.170Z,91.10
2019-01-25T00:49:09.526Z,91.00
2019-01-25T00:51:39.901Z,91.50
2019-01-25T00:54:10.252Z,90.80
2019-01-25T00:56:40.738Z,90.90
2019-01-25T00:59:11.465Z,91.10
2019-01-25T01:01:41.858Z,91.00
2019-01-25T01:04:12.334Z,90.80
2019-01-25T01:06:42.706Z,91.00
2019-01-25T01:09:13.372Z,91.10
2019-01-25T01:11:44.086Z,91.00
2019-01-25T01:14:14.454Z,91.20
2019-01-25T01:16:44.810Z,91.10
2019-01-25T01:19:15.208Z,90.90
2019-01-25T01:21:45.556Z,91.00
2019-01-25T01:24:16.042Z,90.90
2019-01-25T01:26:46.387Z,90.80
2019-01-25T01:29:16.770Z,91.20
2019-01-25T01:31:47.151Z,90.90
2019-01-25T01:34:17.522Z,91.00
2019-01-25T01:36:47.905Z,90.90
2019-01-25T01:39:18.264Z,91.00
2019-01-25T01:41:48.639Z,91.30
2019-01-25T01:44:19.351Z,91.60
2019-01-25T01:46:49.846Z,91.00
2019-01-25T01:49:20.202Z,91.10
2019-01-25T01:51:50.978Z,91.30
2019-01-25T01:54:21.334Z,91.00
2019-01-25T01:56:51.990Z,91.10
2019-01-25T01:59:22.335Z,91.10
2019-01-25T02:01:52.710Z,90.90
2019-01-25T02:04:23.088Z,91.00
2019-01-25T02:06:53.438Z,90.80
2019-01-25T02:09:23.874Z,90.90
2019-01-25T02:11:54.226Z,91.10
2019-01-25T02:14:24.658Z,91.20
2019-01-25T02:16:55.014Z,90.80
2019-01-25T02:19:25.419Z,91.20
2019-01-25T02:21:55.767Z,91.20
2019-01-25T02:24:26.235Z,91.10
2019-01-25T02:26:56.652Z,91.20
2019-01-25T02:29:27.057Z,91.00
2019-01-25T02:31:58.088Z,91.10
2019-01-25T02:34:28.898Z,91.20
2019-01-25T02:36:59.250Z,91.00
2019-01-25T02:39:29.642Z,91.30
2019-01-25T02:41:59.998Z,91.10
2019-01-25T02:44:30.815Z,91.30
2019-01-25T02:47:01.166Z,91.30
2019-01-25T02:49:31.542Z,91.10
2019-01-25T02:52:01.899Z,91.30
2019-01-25T02:54:32.290Z,91.10
2019-01-25T02:57:02.914Z,90.80
2019-01-25T02:59:33.688Z,90.80
2019-01-25T03:02:04.362Z,90.90
2019-01-25T03:04:34.754Z,90.90
2019-01-25T03:07:05.815Z,90.90
2019-01-25T03:09:37.349Z,90.90
2019-01-25T03:12:07.710Z,90.80
2019-01-25T03:14:38.183Z,91.00
2019-01-25T03:17:08.527Z,91.00
2019-01-25T03:19:39.002Z,91.10
2019-01-25T03:22:09.406Z,91.00
2019-01-25T03:24:39.762Z,91.10
2019-01-25T03:27:10.158Z,91.10
2019-01-25T03:29:40.498Z,91.10
2019-01-25T03:32:10.901Z,91.20
2019-01-25T03:34:41.302Z,91.30
2019-01-25T03:37:11.678Z,91.30
2019-01-25T03:39:42.023Z,91.20
2019-01-25T03:42:12.402Z,91.30
2019-01-25T03:44:42.797Z,91.10
2019-01-25T03:47:13.254Z,91.20
2019-01-25T03:49:43.607Z,91.30
2019-01-25T03:52:14.014Z,91.40
2019-01-25T03:54:44.362Z,91.50
2019-01-25T03:57:14.830Z,91.30
2019-01-25T03:59:45.192Z,91.20
2019-01-25T04:02:15.538Z,91.10
2019-01-25T04:04:45.918Z,91.40
2019-01-25T04:07:16.306Z,91.40
2019-01-25T04:09:46.674Z,91.30
2019-01-25T04:12:17.022Z,91.50
2019-01-25T04:14:47.422Z,91.70
2019-01-25T04:17:17.766Z,91.60
2019-01-25T04:19:48.610Z,91.50
2019-01-25T04:22:18.961Z,91.40
2019-01-25T04:24:49.441Z,91.70
2019-01-25T04:27:19.789Z,91.60
2019-01-25T04:29:50.263Z,91.50
2019-01-25T04:32:20.608Z,91.50
2019-01-25T04:34:51.002Z,91.40
2019-01-25T04:37:21.349Z,91.40
2019-01-25T04:39:51.721Z,91.20
2019-01-25T04:42:22.082Z,91.30
2019-01-25T04:44:52.878Z,91.40
2019-01-25T04:47:28.472Z,91.30
2019-01-25T04:49:58.865Z,91.50
2019-01-25T04:52:29.208Z,91.70
2019-01-25T04:54:59.585Z,91.70
2019-01-25T04:57:30.234Z,91.60
2019-01-25T05:00:00.663Z,91.90
2019-01-25T05:02:31.018Z,91.70
2019-01-25T05:05:01.500Z,91.60
2019-01-25T05:07:31.856Z,91.70
2019-01-25T05:10:03.303Z,91.70
2019-01-25T05:12:33.663Z,91.60
2019-01-25T05:15:04.188Z,91.70
2019-01-25T05:17:34.586Z,91.50
2019-01-25T05:20:06.242Z,91.70
2019-01-25T05:22:36.597Z,91.90
2019-01-25T05:25:07.040Z,92.20
2019-01-25T05:27:37.387Z,92.30
2019-01-25T05:30:26.867Z,92.40
2019-01-25T05:32:57.218Z,92.30
2019-01-25T05:35:33.714Z,92.20
2019-01-25T05:38:04.265Z,92.20
2019-01-25T05:40:34.657Z,92.10
2019-01-25T05:43:05.110Z,92.10
2019-01-25T05:45:38.577Z,92.20
2019-01-25T05:48:10.534Z,92.20
2019-01-25T05:50:41.222Z,92.60
2019-01-25T05:53:11.608Z,92.40
2019-01-25T05:55:42.066Z,92.40
2019-01-25T05:58:12.931Z,92.40
2019-01-25T06:00:43.969Z,92.40
2019-01-25T06:03:15.577Z,92.60
2019-01-25T06:05:46.654Z,92.80
2019-01-25T06:08:35.745Z,92.60
2019-01-25T06:11:13.102Z,92.80
2019-01-25T06:13:44.626Z,92.70
2019-01-25T06:16:16.808Z,92.40
2019-01-25T06:18:47.223Z,92.40
2019-01-25T06:21:17.967Z,92.10
2019-01-25T06:23:48.326Z,92.60
2019-01-25T06:26:18.714Z,92.10
2019-01-25T06:28:52.266Z,92.50
2019-01-25T06:31:22.698Z,92.30
2019-01-25T06:33:53.054Z,92.30
2019-01-25T06:36:23.522Z,92.60
2019-01-25T06:38:53.874Z,92.50
2019-01-25T06:41:24.362Z,92.90
2019-01-25T06:43:54.711Z,93.10
2019-01-25T06:46:25.100Z,93.20
2019-01-25T06:48:55.840Z,93.10
2019-01-25T06:51:26.502Z,93.20
2019-01-25T06:53:56.858Z,93.30
2019-01-25T06:56:27.282Z,93.00
2019-01-25T06:59:11.837Z,93.40
2019-01-25T07:01:55.414Z,93.40
2019-01-25T07:04:25.775Z,93.40
2019-01-25T07:06:56.494Z,93.30
2019-01-25T07:09:26.850Z,93.10
2019-01-25T07:11:57.227Z,93.30
2019-01-25T07:14:27.584Z,93.20
2019-01-25T07:16:58.002Z,93.60
2019-01-25T07:19:28.367Z,93.70
2019-01-25T07:21:58.756Z,93.80
2019-01-25T07:24:29.130Z,93.70
2019-01-25T07:26:59.486Z,93.90
2019-01-25T07:29:29.863Z,93.70
2019-01-25T07:32:00.388Z,93.80
2019-01-25T07:34:30.784Z,94.20
2019-01-25T07:37:01.135Z,93.90
2019-01-25T07:39:31.509Z,93.80
2019-01-25T07:42:02.385Z,93.90
2019-01-25T07:44:33.115Z,93.70
2019-01-25T07:47:03.496Z,93.80
2019-01-25T07:49:33.871Z,93.80
2019-01-25T07:52:04.523Z,93.80
2019-01-25T07:54:34.930Z,94.00
2019-01-25T07:57:05.321Z,93.70
2019-01-25T07:59:35.716Z,93.80
2019-01-25T08:02:06.051Z,94.00
2019-01-25T08:04:36.396Z,93.10
2019-01-25T08:07:06.807Z,93.20
2019-01-25T08:09:37.172Z,93.70
2019-01-25T08:12:08.371Z,93.50
2019-01-25T08:14:38.780Z,93.30
2019-01-25T08:17:09.524Z,93.30
2019-01-25T08:19:39.919Z,93.00
2019-01-25T08:22:10.362Z,92.50
2019-01-25T08:24:40.719Z,92.20
2019-01-25T08:27:11.137Z,92.60
2019-01-25T08:29:41.450Z,93.10
2019-01-25T08:32:11.831Z,93.10
2019-01-25T08:34:42.202Z,92.80
2019-01-25T08:37:12.618Z,92.40
2019-01-25T08:39:42.961Z,92.60
2019-01-25T08:42:15.654Z,92.90
2019-01-25T08:44:45.357Z,92.80
2019-01-25T08:47:15.775Z,92.70
2019-01-25T08:49:46.127Z,93.30
2019-01-25T08:52:16.597Z,93.10
2019-01-25T08:54:47.073Z,93.40
2019-01-25T08:57:19.315Z,93.30
2019-01-25T08:59:49.694Z,93.20
2019-01-25T09:02:20.095Z,93.50
2019-01-25T09:04:50.456Z,93.20
2019-01-25T09:07:20.924Z,93.20
2019-01-25T09:09:51.276Z,93.20
2019-01-25T09:12:23.382Z,93.00
2019-01-25T09:14:53.650Z,93.20
2019-01-25T09:17:23.990Z,93.10
2019-01-25T09:19:54.379Z,93.30
2019-01-25T09:22:24.746Z,92.90
2019-01-25T09:24:55.180Z,93.00
2019-01-25T09:27:25.531Z,93.10
2019-01-25T09:29:56.001Z,92.30
2019-01-25T09:32:26.350Z,92.60
2019-01-25T09:34:56.731Z,92.40
2019-01-25T09:37:27.102Z,92.20
2019-01-25T09:39:57.450Z,91.40
2019-01-25T09:42:31.130Z,91.10
2019-01-25T09:44:59.818Z,91.40
2019-01-25T09:47:30.210Z,91.30
2019-01-25T09:50:00.567Z,91.70
2019-01-25T09:52:30.970Z,91.80
2019-01-25T09:55:01.392Z,91.30
2019-01-25T09:57:31.770Z,91.00
2019-01-25T10:00:02.170Z,91.10
2019-01-25T10:02:32.895Z,90.50
2019-01-25T10:05:03.274Z,90.20
2019-01-25T10:07:33.634Z,90.30
2019-01-25T10:10:04.322Z,90.20
2019-01-25T10:12:38.885Z,90.40
2019-01-25T10:15:08.341Z,90.60
2019-01-25T10:17:38.707Z,90.50
2019-01-25T10:20:09.338Z,89.80
2019-01-25T10:22:39.700Z,90.60
2019-01-25T10:25:10.719Z,90.50
2019-01-25T10:27:41.078Z,89.60
2019-01-25T10:30:14.614Z,89.70
2019-01-25T10:32:45.066Z,89.50
2019-01-25T10:35:15.932Z,87.60
2019-01-25T10:37:46.280Z,88.20
2019-01-25T10:40:18.679Z,86.40
2019-01-25T10:42:53.379Z,88.30
2019-01-25T10:45:23.810Z,88.30
2019-01-25T10:47:54.218Z,87.00
2019-01-25T10:50:24.609Z,87.20
2019-01-25T10:52:54.958Z,87.90
2019-01-25T10:55:25.354Z,86.30
2019-01-25T10:57:55.838Z,86.20
2019-01-25T11:00:26.384Z,86.20
2019-01-25T11:02:58.337Z,86.30
2019-01-25T11:05:29.207Z,85.00
2019-01-25T11:07:59.625Z,85.90
2019-01-25T11:10:29.966Z,85.80
2019-01-25T11:13:00.989Z,87.20
2019-01-25T11:15:32.158Z,85.20
2019-01-25T11:18:02.642Z,86.30
2019-01-25T11:20:32.989Z,85.60
2019-01-25T11:23:22.654Z,84.90
2019-01-25T11:25:53.002Z,81.00
2019-01-25T11:28:23.398Z,80.80
2019-01-25T11:30:53.742Z,83.70
2019-01-25T11:33:24.145Z,82.60
2019-01-25T11:35:54.504Z,84.20
2019-01-25T11:38:24.927Z,82.40
2019-01-25T11:40:55.637Z,81.10
2019-01-25T11:43:26.438Z,81.60
2019-01-25T11:45:57.155Z,82.40
2019-01-25T11:48:27.578Z,83.10
2019-01-25T11:50:57.994Z,83.20
2019-01-25T11:53:28.386Z,81.20
2019-01-25T11:55:58.766Z,82.00
2019-01-25T11:58:29.174Z,81.10
2019-01-25T12:00:59.601Z,80.60
2019-01-25T12:03:30.213Z,80.90
2019-01-25T12:06:00.639Z,82.30
2019-01-25T12:08:31.038Z,81.60
2019-01-25T12:11:01.443Z,80.70
2019-01-25T12:13:34.479Z,82.50
2019-01-25T12:16:16.753Z,82.30
2019-01-25T12:18:47.198Z,82.50
2019-01-25T12:21:17.554Z,81.30
2019-01-25T12:23:49.083Z,82.20
2019-01-25T12:26:19.446Z,82.20
2019-01-25T12:28:49.822Z,82.70
2019-01-25T12:31:20.194Z,81.70
2019-01-25T12:33:50.573Z,82.00
2019-01-25T12:36:22.015Z,81.60
2019-01-25T12:38:52.513Z,81.20
2019-01-25T12:41:22.879Z,81.70
2019-01-25T12:43:53.695Z,80.60
2019-01-25T12:46:24.074Z,80.70
2019-01-25T12:48:54.482Z,80.70
2019-01-25T12:51:49.964Z,79.40
2019-01-25T12:54:21.490Z,78.80
2019-01-25T12:56:52.042Z,78.60
2019-01-25T12:59:22.800Z,79.10
2019-01-25T13:01:53.170Z,79.40
2019-01-25T13:04:23.610Z,78.80
2019-01-25T13:06:53.983Z,78.80
2019-01-25T13:09:24.382Z,80.30
2019-01-25T13:11:54.798Z,79.10
2019-01-25T13:14:25.238Z,80.00
2019-01-25T13:17:06.965Z,78.00
2019-01-25T13:19:37.394Z,78.20
2019-01-25T13:22:07.746Z,80.30
2019-01-25T13:24:39.291Z,80.10
2019-01-25T13:27:09.650Z,79.40
2019-01-25T13:29:40.814Z,81.00
2019-01-25T13:32:14.527Z,80.00
2019-01-25T13:34:43.624Z,81.00
2019-01-25T13:37:13.982Z,79.40
2019-01-25T13:39:44.382Z,79.90
2019-01-25T13:42:14.729Z,79.70
2019-01-25T13:44:45.202Z,80.80
2019-01-25T13:47:15.554Z,81.80
2019-01-25T13:49:46.011Z,81.70
2019-01-25T13:52:16.362Z,82.50
2019-01-25T13:54:46.731Z,82.00
2019-01-25T13:57:17.164Z,83.00
2019-01-25T13:59:47.550Z,82.20
2019-01-25T14:02:17.929Z,83.70
2019-01-25T14:04:49.173Z,81.00
2019-01-25T14:07:21.194Z,82.90
2019-01-25T14:09:51.826Z,82.40
2019-01-25T14:12:22.176Z,83.20
2019-01-25T14:14:52.649Z,83.40
2019-01-25T14:17:23.030Z,83.60
2019-01-25T14:19:53.500Z,83.00
2019-01-25T14:22:23.863Z,83.80
2019-01-25T14:24:54.254Z,84.90
2019-01-25T14:27:24.602Z,84.00
2019-01-25T14:29:55.007Z,83.90
2019-01-25T14:32:25.769Z,83.70
2019-01-25T14:34:56.200Z,84.90
2019-01-25T14:37:26.548Z,84.40
2019-01-25T14:39:56.978Z,84.50
2019-01-25T14:42:27.335Z,84.40
2019-01-25T14:44:57.706Z,84.90
2019-01-25T14:47:28.131Z,85.20
2019-01-25T14:49:58.463Z,85.80
2019-01-25T14:52:28.890Z,85.80
2019-01-25T14:54:59.246Z,86.20
2019-01-25T14:57:30.636Z,86.40
2019-01-25T15:00:00.977Z,86.20
2019-01-25T15:02:31.374Z,86.40
2019-01-25T15:05:01.728Z,86.90
2019-01-25T15:07:33.187Z,86.90
2019-01-25T15:10:03.639Z,87.40
2019-01-25T15:12:35.914Z,87.80
2019-01-25T15:15:09.511Z,88.00
2019-01-25T15:17:39.974Z,87.90
2019-01-25T15:20:13.789Z,88.20
2019-01-25T15:22:44.154Z,89.50
2019-01-25T15:25:15.015Z,89.40
2019-01-25T15:27:46.939Z,89.00
2019-01-25T15:30:22.861Z,89.00
2019-01-25T15:32:53.438Z,89.70
2019-01-25T15:35:24.694Z,90.40
2019-01-25T15:37:55.131Z,90.10
2019-01-25T15:40:25.482Z,90.10
2019-01-25T15:42:55.886Z,90.50
2019-01-25T15:45:26.575Z,90.40
2019-01-25T15:47:57.045Z,90.50
2019-01-25T15:50:32.020Z,90.60
2019-01-25T15:53:02.404Z,90.60
2019-01-25T15:55:33.366Z,90.70
2019-01-25T15:58:03.742Z,90.70
2019-01-25T16:00:34.118Z,90.80
2019-01-25T16:03:04.575Z,90.80
2019-01-25T16:05:34.950Z,90.60
2019-01-25T16:08:05.426Z,90.70
2019-01-25T16:10:35.914Z,91.20
2019-01-25T16:13:06.386Z,91.00
2019-01-25T16:15:36.852Z,91.20
2019-01-25T16:18:08.281Z,91.40
2019-01-25T16:20:38.818Z,91.50
2019-01-25T16:23:09.601Z,91.40
2019-01-25T16:25:40.938Z,91.50
2019-01-25T16:28:11.314Z,91.50
2019-01-25T16:30:41.729Z,91.70
2019-01-25T16:33:12.454Z,91.90
2019-01-25T16:35:42.950Z,91.90
2019-01-25T16:38:13.355Z,92.20
2019-01-25T16:40:43.763Z,92.20
2019-01-25T16:43:14.156Z,92.20
2019-01-25T16:45:45.411Z,92.40
2019-01-25T16:48:15.835Z,92.30
2019-01-25T16:50:47.855Z,92.20
2019-01-25T16:53:20.066Z,92.30
2019-01-25T16:55:50.471Z,92.20
2019-01-25T16:58:22.016Z,92.10
2019-01-25T17:00:53.537Z,92.10
2019-01-25T17:03:26.240Z,92.00
2019-01-25T17:05:56.632Z,91.90
2019-01-25T17:08:30.498Z,92.00
2019-01-25T17:11:00.887Z,92.10
2019-01-25T17:13:33.658Z,91.80
2019-01-25T17:16:04.730Z,91.80
2019-01-25T17:18:35.326Z,91.80
2019-01-25T17:21:05.736Z,91.70
2019-01-25T17:23:36.686Z,92.00
2019-01-25T17:26:07.214Z,92.30
2019-01-25T17:28:37.676Z,91.80
2019-01-25T17:31:08.444Z,91.80
2019-01-25T17:33:42.546Z,91.80
2019-01-25T17:36:13.190Z,92.00
2019-01-25T17:38:43.671Z,91.90
2019-01-25T17:41:16.546Z,91.90
2019-01-25T17:43:47.962Z,92.00
2019-01-25T17:46:37.630Z,91.80
2019-01-25T17:49:08.427Z,91.70
2019-01-25T17:51:42.942Z,92.20
2019-01-25T17:54:21.744Z,91.80
2019-01-25T17:56:55.298Z,92.20
2019-01-25T17:59:28.627Z,91.90
2019-01-25T18:01:59.019Z,91.90
2019-01-25T18:04:29.513Z,91.90
2019-01-25T18:07:00.238Z,91.80
2019-01-25T18:09:30.722Z,91.90
2019-01-25T18:12:01.411Z,92.00
2019-01-25T18:14:31.802Z,91.70
2019-01-25T18:17:02.225Z,92.00
2019-01-25T18:19:32.795Z,91.50
2019-01-25T18:22:03.157Z,91.70
2019-01-25T18:24:33.898Z,91.80
2019-01-25T18:27:04.608Z,91.70
2019-01-25T18:29:44.783Z,91.70
2019-01-25T18:32:15.168Z,91.90
2019-01-25T18:34:45.597Z,91.80
2019-01-25T18:37:16.002Z,91.50
2019-01-25T18:39:46.426Z,91.60
2019-01-25T18:42:16.779Z,91.30
2019-01-25T18:44:47.258Z,91.50
2019-01-25T18:47:17.625Z,91.50
2019-01-25T18:49:48.052Z,91.60
2019-01-25T18:52:18.709Z,91.70
2019-01-25T18:54:49.117Z,91.70
2019-01-25T18:57:19.482Z,91.90
2019-01-25T18:59:49.974Z,92.10
2019-01-25T19:02:20.330Z,91.80
2019-01-25T19:04:50.718Z,92.20
2019-01-25T19:07:21.141Z,91.80
2019-01-25T19:09:52.626Z,91.80
2019-01-25T19:12:23.002Z,91.80
2019-01-25T19:14:53.394Z,91.90
2019-01-25T19:17:23.762Z,92.00
2019-01-25T19:19:54.556Z,91.70
2019-01-25T19:22:24.935Z,91.80
2019-01-25T19:24:56.361Z,91.70
2019-01-25T19:27:26.792Z,92.20
2019-01-25T19:29:57.186Z,91.70
2019-01-25T19:32:27.923Z,91.60
2019-01-25T19:34:58.345Z,91.60
2019-01-25T19:37:28.702Z,91.30
2019-01-25T19:39:59.474Z,91.30
2019-01-25T19:42:29.835Z,91.10
2019-01-25T19:45:00.278Z,91.40
2019-01-25T19:47:41.946Z,91.50
2019-01-25T19:50:14.670Z,91.40
2019-01-25T19:52:45.126Z,91.50
2019-01-25T19:55:20.735Z,91.30
2019-01-25T19:57:52.374Z,91.40
2019-01-25T20:00:28.334Z,91.40
2019-01-25T20:02:58.693Z,91.40
2019-01-25T20:05:30.638Z,91.40
2019-01-25T20:08:01.117Z,91.60
2019-01-25T20:10:31.574Z,91.60
2019-01-25T20:13:01.931Z,91.40
2019-01-25T20:15:32.400Z,91.20
2019-01-25T20:18:02.761Z,91.10
2019-01-25T20:20:34.194Z,90.70
2019-01-25T20:23:04.778Z,90.60
2019-01-25T20:25:35.386Z,90.90
2019-01-25T20:28:07.398Z,90.80
2019-01-25T20:30:39.258Z,90.80
2019-01-25T20:33:09.606Z,90.40
2019-01-25T20:35:41.811Z,90.30
2019-01-25T20:38:12.234Z,90.00
2019-01-25T20:40:42.633Z,90.00
2019-01-25T20:43:13.113Z,89.80
2019-01-25T20:45:43.916Z,89.90
2019-01-25T20:48:14.251Z,89.60
2019-01-25T20:50:44.630Z,89.10
2019-01-25T20:53:15.020Z,89.20
2019-01-25T20:55:45.464Z,89.60
2019-01-25T20:58:16.127Z,89.20
2019-01-25T21:00:46.661Z,89.20
2019-01-25T21:03:17.447Z,88.90
2019-01-25T21:05:47.846Z,89.00
2019-01-25T21:08:18.215Z,89.10
2019-01-25T21:10:48.608Z,89.30
2019-01-25T21:13:18.987Z,88.80
2019-01-25T21:15:49.333Z,89.00
2019-01-25T21:18:19.726Z,88.90
2019-01-25T21:20:50.086Z,89.20
2019-01-25T21:23:20.563Z,88.20
2019-01-25T21:25:50.919Z,89.40
2019-01-25T21:28:21.334Z,88.80
2019-01-25T21:30:51.678Z,88.60
2019-01-25T21:33:22.074Z,88.30
2019-01-25T21:35:52.431Z,88.40
2019-01-25T21:38:22.809Z,88.60
2019-01-25T21:40:53.540Z,88.60
2019-01-25T21:43:23.898Z,87.90
2019-01-25T21:45:54.270Z,88.20
2019-01-25T21:48:24.621Z,88.20
2019-01-25T21:50:55.014Z,89.40
2019-01-25T21:53:25.362Z,88.30
2019-01-25T21:55:55.942Z,89.20
2019-01-25T21:58:26.299Z,88.50
2019-01-25T22:00:56.707Z,88.40
2019-01-25T22:03:27.084Z,88.70
2019-01-25T22:05:57.878Z,88.50
2019-01-25T22:08:28.245Z,88.30
2019-01-25T22:10:58.715Z,89.40
2019-01-25T22:13:29.074Z,89.00
2019-01-25T22:15:59.470Z,88.60
2019-01-25T22:18:29.822Z,88.60
2019-01-25T22:21:00.311Z,88.20
2019-01-25T22:23:30.666Z,89.00
2019-01-25T22:26:01.145Z,88.40
2019-01-25T22:28:32.566Z,88.70
2019-01-25T22:31:02.977Z,87.60
2019-01-25T22:33:33.329Z,88.40
2019-01-25T22:36:03.715Z,88.00
2019-01-25T22:38:34.094Z,88.80
2019-01-25T22:41:05.220Z,88.30
2019-01-25T22:43:35.569Z,89.00
2019-01-25T22:46:06.354Z,88.90
2019-01-25T22:48:48.749Z,88.20
2019-01-25T22:51:19.117Z,88.70
2019-01-25T22:53:49.466Z,88.00
2019-01-25T22:56:19.991Z,88.30
2019-01-25T22:58:50.351Z,88.30
2019-01-25T23:01:27.811Z,88.30
2019-01-25T23:04:35.066Z,88.60
2019-01-25T23:07:16.898Z,88.40
2019-01-25T23:09:58.861Z,88.30
2019-01-25T23:12:29.353Z,88.70
2019-01-25T23:14:59.692Z,89.20
2019-01-25T23:17:30.158Z,89.60
2019-01-25T23:20:00.518Z,89.20
2019-01-25T23:22:31.298Z,89.90
2019-01-25T23:25:01.665Z,89.80
2019-01-25T23:27:33.729Z,90.00
2019-01-25T23:30:05.910Z,90.00
2019-01-25T23:32:36.302Z,90.40
2019-01-25T23:35:06.783Z,90.30
2019-01-25T23:37:37.287Z,90.40
2019-01-25T23:40:12.199Z,90.70
2019-01-25T23:42:42.590Z,90.90
2019-01-25T23:45:13.799Z,91.40
2019-01-25T23:47:44.197Z,91.40
2019-01-25T23:50:14.653Z,91.30
2019-01-25T23:52:45.106Z,91.50
2019-01-25T23:55:15.625Z,91.70
2019-01-25T23:57:46.403Z,91.70
